首页
METAR-TAF:

METAR-TAF

机场 :

Lossiemouth, 苏格兰

纬度: 57-43N, 经度: 003-19W, 海拔: 13米

当前天气观测

该预报发布于26分钟前的11:21 UTC
风速5节,风向东北
温度 14°C
湿度 94%
气压 1019 hPa
能見度: 5000
少量云层高于400英尺
阴天层高于500英尺
小毛毛雨

METAR: EGQS 141121Z 04005KT 9999 5000S -DZ FEW004 OVC005 14/13 Q1019 BECMG 9999 NSW OVC007 RMK YLO1 BECMG GRN

时间: 12:47 (11:47 UTC)

预报

该预报发布于1小时和19分钟前的10:28 UTC
预报有效从14日的 12点(UTC)到 15日的 06点(UTC)
风速5节,风向东北
能見度: 5000
阴天层高于500英尺
轻雾
成为
从 14日的 12点(UTC)到 14日的 15点(UTC)
多云层高于700英尺
几率 30% :
短暂存在
从 14日的 12点(UTC)到 14日的 14点(UTC)
能見度: 4000
小毛毛雨
几率 40%
从 14日的 15点(UTC)到 14日的 18点(UTC)
少量云层高于800英尺
几率 40%
从 14日的 19点(UTC)到 15日的 06点(UTC)
能見度: 3000
散云层高于400英尺
轻雾
几率 30%
从 14日的 22点(UTC)到 15日的 06点(UTC)
能見度: 1200
散云层高于200英尺
轻雾

TAF: EGQS 141028Z 1412/1506 04005KT 5000 BR OVC005 BECMG 1412/1415 BKN007 PROB30 TEMPO 1412/1414 4000 -DZ PROB40 1415/1418 FEW008 PROB40 1419/1506 3000 BR SCT004 PROB30 1422/1506 1200 BR SCT002

超过4000个机场的气象观测和天气预报(METAR&TAF报告)。

可查询的气象台以黄色和红色小点在地图上表示。

将鼠标移到小点上方,可查看气象台名称。

然后点击查看天气观测和预报。

如需切换地图:点击带黑十字的绿色按钮放大地图;点击带横线的绿色按钮缩小地图;或者点击绿色箭头查看邻近地区的地图。


METAR-TAF: